Terminal Aerodrome Forecast
Issued by NWS Louisville, KY

Home | Current Version | Previous Version | Text Only | Print | Product List | Glossary On
Versions: 1 2 3 4 5 6 7 8 9 10 11 12 13 14 15 16 17 18
000
FTUS43 KLMK 290500
TAFSDF
TAF
KSDF 290522Z 2906/3012 24005KT P6SM VCSH BKN090
     FM290900 26005KT P6SM BKN090
     FM291900 28009KT P6SM SCT060
     FM300100 32004KT P6SM SKC=

USA.gov is the U.S. government's official web portal to all federal, state and local government web resources and services.